createdAt,value
2022-08-22T00:02:27.454Z,84.52
2022-08-22T00:02:47.468Z,70.60
2022-08-22T00:03:08.826Z,83.14
2022-08-22T00:04:57.666Z,84.70
2022-08-22T00:07:31.231Z,84.75
2022-08-22T00:10:02.772Z,84.43
2022-08-22T00:12:35.754Z,83.60
2022-08-22T00:15:03.397Z,84.24
2022-08-22T00:17:37.502Z,85.27
2022-08-22T00:20:08.715Z,85.63
2022-08-22T00:22:40.392Z,85.10
2022-08-22T00:25:25.615Z,85.54
2022-08-22T00:28:14.875Z,86.13
2022-08-22T00:30:48.823Z,86.72
2022-08-22T00:33:21.428Z,87.26
2022-08-22T00:35:50.671Z,87.39
2022-08-22T00:38:19.728Z,87.49
2022-08-22T00:40:58.530Z,87.84
2022-08-22T00:43:55.440Z,86.60
2022-08-22T00:46:43.083Z,86.05
2022-08-22T00:49:31.591Z,86.37
2022-08-22T00:52:17.903Z,85.45
2022-08-22T00:55:01.238Z,85.42
2022-08-22T00:57:49.854Z,85.29
2022-08-22T01:00:18.110Z,84.94
2022-08-22T01:03:23.934Z,85.97
2022-08-22T01:06:02.396Z,85.75
2022-08-22T01:08:40.242Z,86.96
2022-08-22T01:11:21.048Z,87.39
2022-08-22T01:14:00.193Z,87.59
2022-08-22T01:16:40.492Z,87.14
2022-08-22T01:19:36.984Z,87.79
2022-08-22T01:22:41.181Z,87.68
2022-08-22T01:25:39.930Z,88.41
2022-08-22T01:28:18.843Z,87.89
2022-08-22T01:31:32.179Z,88.90
2022-08-22T01:34:42.754Z,90.22
2022-08-22T01:37:43.646Z,91.52
2022-08-22T01:40:53.567Z,89.55
2022-08-22T01:43:51.257Z,89.98
2022-08-22T01:46:42.927Z,88.60
2022-08-22T01:49:17.757Z,87.51
2022-08-22T01:51:51.366Z,86.72
2022-08-22T01:54:26.875Z,86.24
2022-08-22T01:56:51.231Z,86.20
2022-08-22T01:59:27.623Z,85.98
2022-08-22T02:02:03.367Z,89.32
2022-08-22T02:04:41.202Z,90.41
2022-08-22T02:07:13.190Z,88.56
2022-08-22T02:10:07.831Z,90.05
2022-08-22T02:12:43.073Z,90.40
2022-08-22T02:15:18.379Z,88.75
2022-08-22T02:18:11.126Z,90.20
2022-08-22T02:20:41.917Z,89.64
2022-08-22T02:23:20.664Z,87.68
2022-08-22T02:25:53.634Z,87.47
2022-08-22T02:28:28.903Z,87.91
2022-08-22T02:31:01.957Z,87.64
2022-08-22T02:33:34.329Z,87.10
2022-08-22T02:36:03.067Z,87.19
2022-08-22T02:38:35.844Z,87.18
2022-08-22T02:41:14.011Z,89.56
2022-08-22T02:43:46.499Z,89.62
2022-08-22T02:46:23.041Z,88.98
2022-08-22T02:48:56.011Z,88.93
2022-08-22T02:51:32.551Z,87.73
2022-08-22T02:54:08.255Z,87.25
2022-08-22T02:56:36.438Z,86.79
2022-08-22T02:59:16.359Z,86.34
2022-08-22T03:01:43.936Z,87.90
2022-08-22T03:04:48.638Z,87.70
2022-08-22T03:07:23.844Z,88.28
2022-08-22T03:09:57.738Z,87.21
2022-08-22T03:12:28.732Z,88.49
2022-08-22T03:15:03.259Z,90.47
2022-08-22T03:17:33.016Z,91.81
2022-08-22T03:20:03.845Z,92.10
2022-08-22T03:22:36.772Z,92.62
2022-08-22T03:25:11.324Z,94.18
2022-08-22T03:27:41.885Z,93.99
2022-08-22T03:30:12.507Z,93.98
2022-08-22T03:32:52.561Z,93.76
2022-08-22T03:35:26.555Z,93.57
2022-08-22T03:37:53.897Z,93.09
2022-08-22T03:40:32.784Z,93.35
2022-08-22T03:43:19.012Z,93.79
2022-08-22T03:46:07.260Z,94.56
2022-08-22T03:48:58.458Z,94.28
2022-08-22T03:51:35.079Z,95.09
2022-08-22T03:54:26.379Z,95.09
2022-08-22T03:57:37.134Z,92.60
2022-08-22T04:00:20.575Z,92.50
2022-08-22T04:03:13.654Z,92.05
2022-08-22T04:06:12.587Z,92.68
2022-08-22T04:09:05.132Z,92.39
2022-08-22T04:12:05.215Z,91.38
2022-08-22T04:14:52.070Z,89.56
2022-08-22T04:17:51.387Z,89.26
2022-08-22T04:20:31.822Z,88.00
2022-08-22T04:23:21.722Z,87.15
2022-08-22T04:25:52.580Z,88.47
2022-08-22T04:28:23.666Z,89.44
2022-08-22T04:30:54.942Z,87.79
2022-08-22T04:33:27.981Z,88.84
2022-08-22T04:36:02.671Z,89.84
2022-08-22T04:38:32.293Z,90.68
2022-08-22T04:41:04.578Z,90.33
2022-08-22T04:43:35.758Z,87.47
2022-08-22T04:46:05.589Z,85.42
2022-08-22T04:48:36.226Z,84.39
2022-08-22T04:51:07.056Z,84.52
2022-08-22T04:54:08.061Z,82.75
2022-08-22T04:56:43.656Z,82.85
2022-08-22T04:59:13.103Z,82.78
2022-08-22T05:01:43.334Z,82.72
2022-08-22T05:04:12.846Z,82.80
2022-08-22T05:06:41.465Z,82.88
2022-08-22T05:09:15.505Z,83.57
2022-08-22T05:11:43.111Z,82.69
2022-08-22T05:14:15.663Z,82.49
2022-08-22T05:16:43.297Z,82.55
2022-08-22T05:19:16.571Z,82.92
2022-08-22T05:21:44.231Z,81.74
2022-08-22T05:24:12.623Z,80.31
2022-08-22T05:26:40.172Z,80.17
2022-08-22T05:29:09.252Z,80.35
2022-08-22T05:31:36.279Z,79.85
2022-08-22T05:34:05.961Z,81.55
2022-08-22T05:36:37.240Z,81.60
2022-08-22T05:39:07.117Z,80.79
2022-08-22T05:41:37.011Z,79.47
2022-08-22T05:44:01.426Z,79.54
2022-08-22T05:46:31.898Z,78.65
2022-08-22T05:49:00.416Z,77.81
2022-08-22T05:51:30.661Z,76.94
2022-08-22T05:54:08.496Z,76.12
2022-08-22T05:56:37.804Z,76.45
2022-08-22T05:59:08.564Z,77.59
2022-08-22T06:01:38.883Z,78.63
2022-08-22T06:04:09.087Z,78.36
2022-08-22T06:06:39.251Z,76.66
2022-08-22T06:09:08.528Z,76.54
2022-08-22T06:11:40.131Z,75.82
2022-08-22T06:14:14.310Z,76.74
2022-08-22T06:16:47.539Z,75.35
2022-08-22T06:19:19.810Z,75.46
2022-08-22T06:21:46.641Z,75.80
2022-08-22T06:24:21.293Z,75.56
2022-08-22T06:26:49.916Z,74.12
2022-08-22T06:29:20.928Z,73.21
2022-08-22T06:31:48.295Z,73.33
2022-08-22T06:34:15.192Z,71.55
2022-08-22T06:36:42.516Z,72.29
2022-08-22T06:39:19.602Z,72.92
2022-08-22T06:41:52.129Z,70.70
2022-08-22T06:44:20.023Z,70.88
2022-08-22T06:46:46.966Z,69.79
2022-08-22T06:49:12.512Z,68.65
2022-08-22T06:51:38.807Z,68.62
2022-08-22T06:54:05.189Z,67.89
2022-08-22T06:56:53.471Z,67.66
2022-08-22T06:59:19.672Z,67.40
2022-08-22T07:01:50.562Z,67.24
2022-08-22T07:04:15.903Z,66.62
2022-08-22T07:06:43.220Z,65.38
2022-08-22T07:09:08.709Z,64.93
2022-08-22T07:11:35.844Z,64.80
2022-08-22T07:14:05.844Z,64.74
2022-08-22T07:16:33.095Z,63.80
2022-08-22T07:18:57.328Z,63.35
2022-08-22T07:21:27.903Z,62.01
2022-08-22T07:23:53.301Z,61.26
2022-08-22T07:26:26.752Z,61.86
2022-08-22T07:28:57.969Z,61.01
2022-08-22T07:31:33.650Z,60.50
2022-08-22T07:34:10.157Z,59.51
2022-08-22T07:36:46.193Z,59.72
2022-08-22T07:39:26.582Z,58.86
2022-08-22T07:42:08.211Z,58.19
2022-08-22T07:44:38.542Z,58.63
2022-08-22T07:47:10.857Z,57.84
2022-08-22T07:49:41.206Z,56.82
2022-08-22T07:52:15.157Z,56.83
2022-08-22T07:54:44.857Z,56.98
2022-08-22T07:57:14.240Z,56.32
2022-08-22T07:59:43.780Z,55.75
2022-08-22T08:02:13.611Z,55.51
2022-08-22T08:04:40.551Z,52.79
2022-08-22T08:07:08.443Z,52.45
2022-08-22T08:09:35.771Z,52.21
2022-08-22T08:12:02.514Z,52.79
2022-08-22T08:14:27.890Z,52.67
2022-08-22T08:16:56.292Z,52.08
2022-08-22T08:19:23.144Z,51.47
2022-08-22T08:21:53.542Z,50.33
2022-08-22T08:24:22.644Z,48.25
2022-08-22T08:27:06.992Z,49.27
2022-08-22T08:29:32.083Z,48.66
2022-08-22T08:31:56.757Z,48.02
2022-08-22T08:34:25.224Z,47.53
2022-08-22T08:36:54.483Z,47.51
2022-08-22T08:39:25.145Z,46.68
2022-08-22T08:42:54.297Z,47.37
2022-08-22T08:45:34.659Z,48.17
2022-08-22T08:48:18.594Z,47.09
2022-08-22T08:50:59.422Z,44.77
2022-08-22T08:54:16.204Z,44.16
2022-08-22T08:56:50.630Z,44.29
2022-08-22T08:59:33.623Z,45.48
2022-08-22T09:02:25.040Z,45.35
2022-08-22T09:05:29.871Z,43.13
2022-08-22T09:08:13.391Z,44.05
2022-08-22T09:11:28.541Z,43.05
2022-08-22T09:14:09.765Z,44.68
2022-08-22T09:17:01.873Z,44.99
2022-08-22T09:20:17.568Z,44.32
2022-08-22T09:23:20.280Z,42.55
2022-08-22T09:25:51.760Z,41.50
2022-08-22T09:28:21.433Z,43.11
2022-08-22T09:33:57.942Z,45.54
2022-08-22T09:36:29.937Z,47.89
2022-08-22T09:39:00.009Z,46.63
2022-08-22T09:41:38.883Z,45.60
2022-08-22T09:44:16.626Z,45.31
2022-08-22T09:46:53.776Z,45.91
2022-08-22T09:49:28.788Z,44.51
2022-08-22T09:52:14.544Z,44.93
2022-08-22T09:54:57.746Z,44.80
2022-08-22T09:57:34.622Z,44.68
2022-08-22T10:00:17.674Z,45.28
2022-08-22T10:02:59.274Z,43.67
2022-08-22T10:05:41.193Z,43.86
2022-08-22T10:08:33.294Z,42.49
2022-08-22T10:11:15.584Z,41.86
2022-08-22T10:14:00.817Z,43.54
2022-08-22T10:16:37.106Z,42.92
2022-08-22T10:19:12.205Z,42.84
2022-08-22T10:21:44.976Z,43.08
2022-08-22T10:24:25.068Z,41.81
2022-08-22T10:26:54.738Z,41.01
2022-08-22T10:29:41.538Z,40.43
2022-08-22T10:32:17.281Z,41.74
2022-08-22T10:34:48.575Z,39.61
2022-08-22T10:37:23.652Z,40.58
2022-08-22T10:39:53.913Z,40.72
2022-08-22T10:42:28.617Z,40.41
2022-08-22T10:45:24.061Z,41.00
2022-08-22T10:48:36.724Z,42.34
2022-08-22T10:51:17.506Z,41.07
2022-08-22T10:54:09.512Z,40.66
2022-08-22T10:56:40.572Z,41.09
2022-08-22T10:59:22.861Z,41.17
2022-08-22T11:02:02.411Z,42.20
2022-08-22T11:04:44.061Z,43.60
2022-08-22T11:07:21.949Z,42.22
2022-08-22T11:09:54.886Z,41.82
2022-08-22T11:12:23.931Z,42.08
2022-08-22T11:15:08.670Z,42.13
2022-08-22T11:18:05.033Z,42.12
2022-08-22T11:20:40.102Z,42.63
2022-08-22T11:23:21.218Z,44.09
2022-08-22T11:25:56.499Z,45.25
2022-08-22T11:28:34.377Z,43.70
2022-08-22T11:31:09.839Z,43.57
2022-08-22T11:33:47.392Z,45.22
2022-08-22T11:36:26.961Z,44.66
2022-08-22T11:39:02.366Z,44.51
2022-08-22T11:41:31.460Z,43.42
2022-08-22T11:44:03.514Z,43.45
2022-08-22T11:46:33.437Z,44.41
2022-08-22T11:49:09.657Z,45.12
2022-08-22T11:51:58.296Z,45.65
2022-08-22T11:54:31.279Z,46.73
2022-08-22T11:57:06.343Z,47.57
2022-08-22T11:59:43.013Z,48.01
2022-08-22T12:02:20.363Z,45.70
2022-08-22T12:04:48.934Z,46.81
2022-08-22T12:07:16.888Z,47.98
2022-08-22T12:09:48.272Z,46.29
2022-08-22T12:12:27.179Z,47.29
2022-08-22T12:14:59.346Z,46.18
2022-08-22T12:17:55.808Z,45.16
2022-08-22T12:20:56.480Z,46.47
2022-08-22T12:23:48.730Z,46.99
2022-08-22T12:26:22.066Z,48.44
2022-08-22T12:29:02.163Z,48.90
2022-08-22T12:31:36.934Z,47.94
2022-08-22T12:34:18.460Z,46.29
2022-08-22T12:37:01.447Z,48.97
2022-08-22T12:39:59.453Z,46.51
2022-08-22T12:42:46.107Z,45.53
2022-08-22T12:45:33.899Z,48.91
2022-08-22T12:48:10.967Z,46.88
2022-08-22T12:50:51.018Z,49.01
2022-08-22T12:53:57.431Z,50.38
2022-08-22T12:56:33.868Z,50.24
2022-08-22T12:59:24.654Z,49.70
2022-08-22T13:01:51.327Z,50.64
2022-08-22T13:04:32.754Z,50.57
2022-08-22T13:07:19.502Z,49.72
2022-08-22T13:09:50.093Z,48.97
2022-08-22T13:12:23.426Z,50.15
2022-08-22T13:14:51.598Z,49.88
2022-08-22T13:17:24.574Z,50.19
2022-08-22T13:19:56.780Z,49.15
2022-08-22T13:22:27.458Z,49.51
2022-08-22T13:25:00.153Z,47.45
2022-08-22T13:27:30.624Z,46.98
2022-08-22T13:29:59.706Z,49.04
2022-08-22T13:32:31.744Z,49.37
2022-08-22T13:34:58.952Z,49.47
2022-08-22T13:37:31.296Z,49.84
2022-08-22T13:40:03.206Z,48.17
2022-08-22T13:42:31.427Z,47.71
2022-08-22T13:44:59.621Z,46.30
2022-08-22T13:47:31.737Z,46.15
2022-08-22T13:50:05.126Z,46.95
2022-08-22T13:52:36.966Z,45.70
2022-08-22T13:55:11.476Z,45.70
2022-08-22T13:57:41.609Z,45.44
2022-08-22T14:00:33.785Z,44.99
2022-08-22T14:03:05.611Z,44.72
2022-08-22T14:05:35.405Z,47.70
2022-08-22T14:08:12.824Z,47.09
2022-08-22T14:10:42.923Z,46.50
2022-08-22T14:13:36.840Z,45.36
2022-08-22T14:16:02.638Z,45.81
2022-08-22T14:18:35.954Z,46.36
2022-08-22T14:21:40.632Z,46.54
2022-08-22T14:24:13.942Z,45.03
2022-08-22T14:26:47.890Z,44.80
2022-08-22T14:29:15.518Z,45.05
2022-08-22T14:31:39.883Z,43.80
2022-08-22T14:34:10.537Z,43.60
2022-08-22T14:36:40.995Z,44.92
2022-08-22T14:39:12.009Z,44.22
2022-08-22T14:41:52.463Z,44.31
2022-08-22T14:44:24.550Z,44.21
2022-08-22T14:46:54.958Z,43.48
2022-08-22T14:49:35.255Z,44.13
2022-08-22T14:52:05.564Z,44.30
2022-08-22T14:54:32.337Z,45.22
2022-08-22T14:56:59.487Z,46.27
2022-08-22T14:59:36.343Z,46.38
2022-08-22T15:02:05.858Z,46.47
2022-08-22T15:04:36.583Z,47.80
2022-08-22T15:07:02.375Z,46.76
2022-08-22T15:20:27.708Z,47.12
2022-08-22T15:22:54.243Z,46.45
2022-08-22T15:25:22.141Z,46.27
2022-08-22T15:27:50.824Z,46.17
2022-08-22T15:30:18.731Z,47.98
2022-08-22T15:32:48.995Z,49.68
2022-08-22T15:35:18.670Z,49.10
2022-08-22T15:37:58.572Z,48.91
2022-08-22T15:40:40.460Z,51.20
2022-08-22T15:43:22.521Z,51.01
2022-08-22T15:45:48.621Z,52.10
2022-08-22T15:48:27.796Z,52.11
2022-08-22T15:51:00.693Z,51.19
2022-08-22T15:53:31.193Z,52.17
2022-08-22T15:56:27.073Z,53.22
2022-08-22T15:59:13.356Z,53.71
2022-08-22T16:01:45.178Z,53.32
2022-08-22T16:04:16.761Z,53.49
2022-08-22T16:06:46.792Z,56.69
2022-08-22T16:09:32.859Z,56.80
2022-08-22T16:11:59.563Z,56.22
2022-08-22T16:14:26.093Z,56.94
2022-08-22T16:16:59.989Z,55.70
2022-08-22T16:19:25.788Z,55.97
2022-08-22T16:22:12.123Z,55.52
2022-08-22T16:25:01.802Z,57.36
2022-08-22T16:27:28.678Z,56.64
2022-08-22T16:30:04.465Z,58.70
2022-08-22T16:32:29.526Z,59.07
2022-08-22T16:34:53.986Z,60.73
2022-08-22T16:37:45.972Z,61.49
2022-08-22T16:40:16.870Z,62.11
2022-08-22T16:42:43.426Z,61.51
2022-08-22T16:45:18.526Z,62.12
2022-08-22T16:48:02.438Z,62.43
2022-08-22T16:50:32.663Z,63.21
2022-08-22T16:53:02.305Z,63.05
2022-08-22T16:55:47.720Z,63.19
2022-08-22T16:58:40.070Z,62.19
2022-08-22T17:01:18.043Z,61.63
2022-08-22T17:03:50.111Z,60.49
2022-08-22T17:06:32.510Z,60.74
2022-08-22T17:09:08.386Z,60.88
2022-08-22T17:11:43.541Z,61.86
2022-08-22T17:14:29.713Z,62.03
2022-08-22T17:17:18.188Z,62.33
2022-08-22T17:19:58.152Z,63.73
2022-08-22T17:22:32.044Z,63.93
2022-08-22T17:25:15.337Z,63.55
2022-08-22T17:27:42.288Z,63.31
2022-08-22T17:30:10.539Z,63.43
2022-08-22T17:32:46.146Z,64.70
2022-08-22T17:35:26.340Z,64.86
2022-08-22T17:38:04.613Z,65.30
2022-08-22T17:40:41.334Z,65.16
2022-08-22T17:43:33.560Z,65.05
2022-08-22T17:46:26.160Z,65.84
2022-08-22T17:48:56.981Z,65.97
2022-08-22T17:51:28.871Z,66.35
2022-08-22T17:53:58.117Z,68.24
2022-08-22T17:56:29.573Z,69.34
2022-08-22T17:59:02.079Z,69.73
2022-08-22T18:01:48.613Z,70.65
2022-08-22T18:04:20.473Z,70.12
2022-08-22T18:06:55.497Z,70.14
2022-08-22T18:09:30.198Z,69.45
2022-08-22T18:12:03.271Z,68.53
2022-08-22T18:14:35.376Z,68.47
2022-08-22T18:17:01.072Z,68.70
2022-08-22T18:19:53.043Z,69.69
2022-08-22T18:22:45.041Z,69.98
2022-08-22T18:25:40.968Z,70.35
2022-08-22T18:28:32.454Z,71.51
2022-08-22T18:31:30.338Z,71.72
2022-08-22T18:34:26.882Z,71.51
2022-08-22T18:37:21.823Z,70.91
2022-08-22T18:40:12.754Z,72.08
2022-08-22T18:43:04.674Z,73.30
2022-08-22T18:46:03.595Z,73.30
2022-08-22T18:49:13.639Z,72.53
2022-08-22T18:52:25.505Z,71.62
2022-08-22T18:55:38.336Z,73.60
2022-08-22T18:58:45.116Z,75.26
2022-08-22T19:01:44.645Z,75.81
2022-08-22T19:05:01.132Z,76.11
2022-08-22T19:08:09.212Z,75.78
2022-08-22T19:11:10.636Z,75.63
2022-08-22T19:14:17.546Z,77.09
2022-08-22T19:17:28.480Z,76.28
2022-08-22T19:20:40.642Z,77.12
2022-08-22T19:23:50.958Z,75.90
2022-08-22T19:26:38.972Z,74.97
2022-08-22T19:29:55.812Z,73.17
2022-08-22T19:33:06.312Z,72.51
2022-08-22T19:36:29.622Z,71.28
2022-08-22T19:39:54.505Z,70.91
2022-08-22T19:42:41.770Z,70.19
2022-08-22T19:45:29.307Z,70.96
2022-08-22T19:48:15.236Z,71.53
2022-08-22T19:51:13.263Z,71.53
2022-08-22T19:54:16.389Z,72.03
2022-08-22T19:57:07.358Z,71.48
2022-08-22T20:00:02.076Z,71.64
2022-08-22T20:03:02.246Z,71.77
2022-08-22T20:05:57.640Z,71.87
2022-08-22T20:09:11.993Z,72.31
2022-08-22T20:12:10.007Z,74.10
2022-08-22T20:14:56.949Z,73.95
2022-08-22T20:17:44.554Z,74.82
2022-08-22T20:20:40.189Z,74.32
2022-08-22T20:23:30.759Z,73.90
2022-08-22T20:26:17.167Z,74.24
2022-08-22T20:29:04.276Z,75.18
2022-08-22T20:31:56.761Z,74.82
2022-08-22T20:34:43.489Z,74.72
2022-08-22T20:38:05.780Z,74.98
2022-08-22T20:40:56.399Z,75.29
2022-08-22T20:43:44.898Z,74.97
2022-08-22T20:46:47.797Z,75.71
2022-08-22T20:49:47.469Z,76.28
2022-08-22T20:52:33.822Z,75.91
2022-08-22T20:55:20.908Z,75.71
2022-08-22T20:58:21.757Z,75.43
2022-08-22T21:01:08.728Z,74.57
2022-08-22T21:03:53.873Z,74.59
2022-08-22T21:06:39.347Z,74.56
2022-08-22T21:09:40.872Z,74.87
2022-08-22T21:12:26.456Z,74.65
2022-08-22T21:15:12.911Z,74.69
2022-08-22T21:17:57.127Z,73.69
2022-08-22T21:20:41.877Z,73.95
2022-08-22T21:23:25.872Z,74.23
2022-08-22T21:26:12.648Z,73.95
2022-08-22T21:29:00.171Z,73.49
2022-08-22T21:31:48.865Z,72.12
2022-08-22T21:34:36.664Z,71.46
2022-08-22T21:37:28.747Z,70.91
2022-08-22T21:40:18.285Z,71.11
2022-08-22T21:43:07.518Z,71.36
2022-08-22T21:45:51.617Z,71.33
2022-08-22T21:48:40.858Z,72.24
2022-08-22T21:51:30.281Z,70.87
2022-08-22T21:54:41.556Z,69.72
2022-08-22T21:57:43.629Z,69.37
2022-08-22T22:00:49.358Z,70.06
2022-08-22T22:03:39.210Z,71.09
2022-08-22T22:06:23.298Z,71.56
2022-08-22T22:09:09.955Z,73.46
2022-08-22T22:11:56.012Z,74.34
2022-08-22T22:14:44.406Z,75.02
2022-08-22T22:17:28.425Z,73.51
2022-08-22T22:20:15.864Z,72.61
2022-08-22T22:23:00.294Z,71.54
2022-08-22T22:25:45.673Z,71.11
2022-08-22T22:28:32.719Z,72.07
2022-08-22T22:31:18.469Z,74.34
2022-08-22T22:34:02.439Z,75.18
2022-08-22T22:36:48.087Z,75.43
2022-08-22T22:39:32.219Z,74.95
2022-08-22T22:42:16.506Z,74.61
2022-08-22T22:45:00.636Z,75.49
2022-08-22T22:47:44.712Z,75.48
2022-08-22T22:50:28.879Z,75.97
2022-08-22T22:53:19.939Z,75.62
2022-08-22T22:56:06.379Z,76.92
2022-08-22T22:58:59.007Z,76.10
2022-08-22T23:02:01.759Z,76.06
2022-08-22T23:04:48.115Z,76.79
2022-08-22T23:07:33.768Z,76.45
2022-08-22T23:10:22.114Z,75.87
2022-08-22T23:13:08.238Z,75.48
2022-08-22T23:15:52.938Z,75.57
2022-08-22T23:18:37.237Z,76.03
2022-08-22T23:21:24.185Z,74.41
2022-08-22T23:24:08.440Z,75.15
2022-08-22T23:26:54.042Z,75.40
2022-08-22T23:29:38.635Z,74.40
2022-08-22T23:32:22.710Z,75.44
2022-08-22T23:35:10.106Z,75.65
2022-08-22T23:37:54.114Z,75.99
2022-08-22T23:40:38.167Z,76.32
2022-08-22T23:43:23.529Z,77.55
2022-08-22T23:46:07.651Z,77.13
2022-08-22T23:48:51.785Z,76.45
2022-08-22T23:51:36.623Z,76.27
2022-08-22T23:54:20.808Z,77.52
2022-08-22T23:57:12.031Z,77.61
2022-08-22T23:59:58.736Z,77.74
